createdAt,value
2022-10-17T04:02:09.357Z,13.99
2022-10-17T04:06:21.531Z,13.79
2022-10-17T04:10:33.823Z,13.64
2022-10-17T04:14:45.442Z,13.48
2022-10-17T04:18:58.793Z,13.31
2022-10-17T04:23:13.112Z,13.19
2022-10-17T04:27:25.520Z,13.00
2022-10-17T04:31:38.599Z,12.98
2022-10-17T04:36:02.396Z,12.90
2022-10-17T04:40:15.101Z,12.82
2022-10-17T04:44:26.740Z,12.73
2022-10-17T04:48:39.163Z,12.56
2022-10-17T04:52:50.839Z,12.55
2022-10-17T04:57:02.708Z,12.47
2022-10-17T05:01:18.084Z,12.37
2022-10-17T05:05:37.504Z,12.38
2022-10-17T05:09:49.156Z,12.32
2022-10-17T05:14:03.013Z,12.27
2022-10-17T05:18:16.412Z,12.18
2022-10-17T05:22:29.123Z,12.18
2022-10-17T05:26:42.318Z,12.16
2022-10-17T05:30:54.064Z,12.08
2022-10-17T05:35:06.304Z,12.09
2022-10-17T05:39:19.688Z,12.04
2022-10-17T05:43:33.638Z,12.40
2022-10-17T05:47:45.232Z,12.73
2022-10-17T05:51:57.079Z,13.16
2022-10-17T05:56:12.698Z,13.50
2022-10-17T06:00:24.365Z,13.94
2022-10-17T06:04:45.835Z,14.18
2022-10-17T06:08:58.742Z,14.39
2022-10-17T06:13:17.541Z,14.54
2022-10-17T06:17:32.372Z,14.60
2022-10-17T06:21:44.636Z,14.59
2022-10-17T06:26:06.043Z,14.61
2022-10-17T06:30:18.123Z,14.62
2022-10-17T06:34:30.366Z,14.94
2022-10-17T06:38:42.167Z,15.21
2022-10-17T06:43:02.664Z,15.37
2022-10-17T06:47:33.180Z,15.54
2022-10-17T06:51:51.763Z,15.64
2022-10-17T06:56:09.332Z,15.65
2022-10-17T07:00:55.426Z,15.73
2022-10-17T07:05:10.485Z,15.83
2022-10-17T07:09:22.896Z,16.06
2022-10-17T07:13:38.961Z,16.26
2022-10-17T07:17:51.840Z,16.39
2022-10-17T07:22:04.493Z,16.72
2022-10-17T07:26:19.081Z,16.92
2022-10-17T07:30:32.966Z,17.07
2022-10-17T07:34:49.241Z,17.21
2022-10-17T07:39:00.886Z,17.36
2022-10-17T07:43:14.106Z,17.34
2022-10-17T07:47:25.713Z,17.45
2022-10-17T07:51:38.332Z,17.53
2022-10-17T07:55:51.305Z,17.63
2022-10-17T08:00:03.067Z,17.62
2022-10-17T08:04:24.266Z,17.76
2022-10-17T08:08:35.755Z,17.85
2022-10-17T08:12:47.295Z,17.91
2022-10-17T08:16:58.797Z,18.00
2022-10-17T08:21:12.903Z,18.14
2022-10-17T08:25:24.903Z,18.32
2022-10-17T08:29:36.665Z,18.39
2022-10-17T08:33:49.917Z,18.48
2022-10-17T08:38:04.491Z,18.64
2022-10-17T08:42:57.442Z,18.75
2022-10-17T08:47:23.235Z,18.87
2022-10-17T08:51:40.612Z,18.85
2022-10-17T08:55:54.472Z,18.92
2022-10-17T09:00:22.517Z,19.00
2022-10-17T09:04:46.152Z,19.00
2022-10-17T09:09:21.656Z,19.07
2022-10-17T09:14:10.494Z,19.20
2022-10-17T09:18:35.064Z,19.26
2022-10-17T09:27:31.291Z,19.52
2022-10-17T09:31:51.361Z,19.62
2022-10-17T09:36:05.747Z,19.72
2022-10-17T09:40:31.674Z,19.76
2022-10-17T09:44:58.148Z,19.89
2022-10-17T09:49:18.506Z,19.97
2022-10-17T09:53:35.989Z,20.13
2022-10-17T09:57:57.299Z,20.17
2022-10-17T10:02:18.766Z,20.11
2022-10-17T10:06:30.328Z,20.15
2022-10-17T10:10:43.297Z,20.26
2022-10-17T10:14:55.497Z,20.28
2022-10-17T10:19:21.613Z,20.41
2022-10-17T10:23:33.936Z,20.52
2022-10-17T10:27:46.919Z,20.62
2022-10-17T10:32:07.177Z,20.70
2022-10-17T10:36:23.777Z,20.80
2022-10-17T10:40:44.949Z,20.85
2022-10-17T10:45:23.688Z,20.96
2022-10-17T10:49:41.817Z,21.04
2022-10-17T10:53:56.200Z,21.13
2022-10-17T10:58:32.715Z,21.21
2022-10-17T11:02:54.430Z,21.25
2022-10-17T11:07:24.241Z,21.28
2022-10-17T11:11:40.585Z,21.42
2022-10-17T11:16:29.461Z,21.48
2022-10-17T11:20:58.167Z,21.64
2022-10-17T11:25:12.619Z,21.70
2022-10-17T11:29:34.147Z,21.78
2022-10-17T11:33:51.564Z,21.97
2022-10-17T11:38:07.872Z,22.12
2022-10-17T11:42:55.446Z,22.17
2022-10-17T11:47:31.660Z,22.15
2022-10-17T11:52:03.661Z,22.26
2022-10-17T11:56:20.240Z,22.24
2022-10-17T12:00:58.207Z,22.24
2022-10-17T12:05:31.914Z,22.22
2022-10-17T12:09:49.801Z,22.28
2022-10-17T12:14:05.812Z,22.32
2022-10-17T12:18:18.050Z,22.25
2022-10-17T12:22:29.613Z,22.32
2022-10-17T12:26:41.147Z,22.36
2022-10-17T12:30:57.879Z,22.45
2022-10-17T12:35:20.571Z,22.44
2022-10-17T12:39:35.008Z,22.38
2022-10-17T12:43:52.427Z,22.21
2022-10-17T12:48:04.136Z,22.30
2022-10-17T12:52:26.642Z,22.32
2022-10-17T12:56:42.403Z,22.39
2022-10-17T13:01:22.467Z,22.49
2022-10-17T13:05:35.485Z,22.49
2022-10-17T13:09:48.462Z,22.53
2022-10-17T13:14:03.292Z,22.62
2022-10-17T13:18:25.471Z,22.63
2022-10-17T13:22:45.046Z,22.57
2022-10-17T13:26:57.149Z,22.55
2022-10-17T13:31:27.985Z,22.50
2022-10-17T13:36:00.554Z,22.50
2022-10-17T13:44:59.207Z,22.51
2022-10-17T13:49:27.452Z,22.50
2022-10-17T13:53:43.777Z,22.49
2022-10-17T13:57:55.348Z,22.33
2022-10-17T14:02:15.116Z,22.14
2022-10-17T14:06:29.436Z,21.86
2022-10-17T14:10:43.231Z,21.71
2022-10-17T14:15:11.178Z,21.80
2022-10-17T14:19:33.156Z,21.93
2022-10-17T14:23:44.733Z,21.98
2022-10-17T14:28:09.356Z,22.04
2022-10-17T14:32:22.334Z,21.97
2022-10-17T14:36:39.433Z,21.98
2022-10-17T14:41:47.684Z,21.83
2022-10-17T14:46:02.870Z,21.80
2022-10-17T14:50:14.310Z,21.75
2022-10-17T14:54:30.373Z,21.65
2022-10-17T14:58:41.867Z,21.56
2022-10-17T15:02:55.765Z,21.55
2022-10-17T15:07:07.316Z,21.53
2022-10-17T15:11:18.885Z,21.42
2022-10-17T15:15:31.577Z,21.37
2022-10-17T15:19:43.110Z,21.34
2022-10-17T15:23:54.833Z,21.29
2022-10-17T15:28:06.454Z,21.25
2022-10-17T15:32:17.999Z,21.14
2022-10-17T15:36:34.155Z,21.04
2022-10-17T15:40:48.885Z,20.87
2022-10-17T15:45:00.468Z,20.73
2022-10-17T15:49:14.466Z,20.59
2022-10-17T15:53:25.979Z,20.46
2022-10-17T15:57:44.121Z,20.33
2022-10-17T16:01:55.681Z,20.28
2022-10-17T16:06:10.727Z,20.23
2022-10-17T16:10:26.038Z,20.18
2022-10-17T16:14:37.645Z,20.13
2022-10-17T16:18:49.321Z,20.05
2022-10-17T16:23:02.952Z,19.93
2022-10-17T16:27:14.461Z,19.77
2022-10-17T16:31:29.351Z,19.60
2022-10-17T16:35:40.934Z,19.42
2022-10-17T16:39:53.619Z,19.23
2022-10-17T16:44:08.443Z,19.10
2022-10-17T16:48:20.120Z,18.94
2022-10-17T16:52:32.013Z,18.79
2022-10-17T16:56:43.840Z,18.65
2022-10-17T17:00:55.430Z,18.54
2022-10-17T17:05:07.381Z,18.43
2022-10-17T17:09:18.881Z,18.33
2022-10-17T17:13:30.412Z,18.27
2022-10-17T17:17:50.645Z,18.20
2022-10-17T17:22:03.847Z,18.13
2022-10-17T17:26:21.449Z,18.09
2022-10-17T17:30:34.443Z,18.02
2022-10-17T17:34:45.958Z,18.01
2022-10-17T17:38:59.212Z,17.93
2022-10-17T17:43:10.711Z,17.85
2022-10-17T17:47:22.219Z,17.77
2022-10-17T17:51:34.669Z,17.70
2022-10-17T17:55:46.160Z,17.67
2022-10-17T17:59:57.662Z,17.63
2022-10-17T18:04:09.727Z,17.65
2022-10-17T18:08:21.214Z,17.69
2022-10-17T18:12:34.382Z,17.54
2022-10-17T18:16:45.896Z,17.55
2022-10-17T18:21:01.253Z,17.62
2022-10-17T18:25:12.814Z,17.67
2022-10-17T18:29:24.337Z,17.72
2022-10-17T18:33:36.024Z,17.74
2022-10-17T18:37:47.629Z,17.75
2022-10-17T18:41:59.158Z,17.76
2022-10-17T18:46:24.792Z,17.74
2022-10-17T18:50:38.840Z,17.66
2022-10-17T18:54:50.435Z,17.62
2022-10-17T18:59:01.948Z,17.60
2022-10-17T19:03:13.434Z,17.57
2022-10-17T19:07:24.933Z,17.54
2022-10-17T19:11:38.048Z,17.47
2022-10-17T19:15:49.557Z,17.47
2022-10-17T19:20:01.073Z,17.45
2022-10-17T19:24:30.669Z,17.44
2022-10-17T19:28:42.752Z,17.44
2022-10-17T19:32:54.295Z,17.36
2022-10-17T19:37:05.813Z,17.30
2022-10-17T19:41:17.295Z,17.21
2022-10-17T19:45:28.809Z,17.15
2022-10-17T19:49:40.375Z,17.10
2022-10-17T19:53:54.052Z,17.03
2022-10-17T19:58:05.606Z,17.01
2022-10-17T20:02:17.152Z,17.01
2022-10-17T20:06:28.707Z,16.99
2022-10-17T20:10:40.657Z,16.95
2022-10-17T20:14:52.156Z,16.92
2022-10-17T20:19:07.810Z,16.92
2022-10-17T20:23:19.342Z,16.91
2022-10-17T20:27:30.848Z,16.90
2022-10-17T20:31:43.936Z,16.93
2022-10-17T20:35:55.462Z,16.93
2022-10-17T20:40:34.569Z,16.91
2022-10-17T20:44:39.102Z,16.90
2022-10-17T20:48:54.448Z,16.92
2022-10-17T20:53:34.997Z,16.87
2022-10-17T20:57:37.795Z,16.89
2022-10-17T21:01:49.396Z,16.87
2022-10-17T21:06:00.947Z,16.85
2022-10-17T21:10:34.367Z,16.83
2022-10-17T21:14:43.939Z,16.80
2022-10-17T21:18:56.603Z,16.78
2022-10-17T21:23:08.104Z,16.78
2022-10-17T21:27:19.664Z,16.78
